sensor_id;sensor_type;location;lat;lon;timestamp;pressure;altitude;pressure_sealevel;temperature;humidity
62436;BME280;48480;50.252;18.848;2023-04-26T00:00:32;98164.13;;;8.39;63.79
62436;BME280;48480;50.252;18.848;2023-04-26T00:03:17;98164.11;;;8.42;63.47
62436;BME280;48480;50.252;18.848;2023-04-26T00:06:02;98169.92;;;8.43;63.29
62436;BME280;48480;50.252;18.848;2023-04-26T00:08:47;98172.77;;;8.42;63.00
62436;BME280;48480;50.252;18.848;2023-04-26T00:11:31;98170.77;;;8.40;62.96
62436;BME280;48480;50.252;18.848;2023-04-26T00:14:15;98170.20;;;8.40;62.90
62436;BME280;48480;50.252;18.848;2023-04-26T00:16:59;98167.73;;;8.38;62.10
62436;BME280;48480;50.252;18.848;2023-04-26T00:19:45;98167.55;;;8.31;61.84
62436;BME280;48480;50.252;18.848;2023-04-26T00:22:29;98164.13;;;8.27;61.52
62436;BME280;48480;50.252;18.848;2023-04-26T00:25:14;98162.59;;;8.20;61.14
62436;BME280;48480;50.252;18.848;2023-04-26T00:27:59;98163.66;;;8.15;61.43
62436;BME280;48480;50.252;18.848;2023-04-26T00:30:44;98166.13;;;8.11;61.07
62436;BME280;48480;50.252;18.848;2023-04-26T00:33:31;98168.71;;;8.04;60.31
62436;BME280;48480;50.252;18.848;2023-04-26T00:36:15;98168.00;;;7.94;59.75
62436;BME280;48480;50.252;18.848;2023-04-26T00:39:02;98169.67;;;7.86;59.69
62436;BME280;48480;50.252;18.848;2023-04-26T00:41:46;98171.92;;;7.86;59.95
62436;BME280;48480;50.252;18.848;2023-04-26T00:44:30;98180.29;;;7.85;59.65
62436;BME280;48480;50.252;18.848;2023-04-26T00:47:14;98184.79;;;7.86;59.53
62436;BME280;48480;50.252;18.848;2023-04-26T00:50:00;98188.73;;;7.84;59.16
62436;BME280;48480;50.252;18.848;2023-04-26T00:52:45;98185.92;;;7.76;58.93
62436;BME280;48480;50.252;18.848;2023-04-26T00:55:30;98189.68;;;7.73;59.10
62436;BME280;48480;50.252;18.848;2023-04-26T00:58:14;98188.08;;;7.71;59.28
62436;BME280;48480;50.252;18.848;2023-04-26T01:00:58;98187.80;;;7.69;59.53
62436;BME280;48480;50.252;18.848;2023-04-26T01:03:42;98194.01;;;7.66;59.53
62436;BME280;48480;50.252;18.848;2023-04-26T01:06:34;98193.73;;;7.62;59.61
62436;BME280;48480;50.252;18.848;2023-04-26T01:09:18;98192.75;;;7.58;59.51
62436;BME280;48480;50.252;18.848;2023-04-26T01:12:03;98194.35;;;7.51;59.35
62436;BME280;48480;50.252;18.848;2023-04-26T01:14:48;98194.27;;;7.42;59.18
62436;BME280;48480;50.252;18.848;2023-04-26T01:17:32;98195.00;;;7.36;59.17
62436;BME280;48480;50.252;18.848;2023-04-26T01:20:16;98194.64;;;7.25;59.12
62436;BME280;48480;50.252;18.848;2023-04-26T01:23:00;98193.44;;;7.22;59.01
62436;BME280;48480;50.252;18.848;2023-04-26T01:25:44;98204.95;;;7.25;58.92
62436;BME280;48480;50.252;18.848;2023-04-26T01:28:29;98204.75;;;7.21;59.03
62436;BME280;48480;50.252;18.848;2023-04-26T01:31:13;98208.25;;;7.17;58.97
62436;BME280;48480;50.252;18.848;2023-04-26T01:33:57;98212.14;;;7.14;59.15
62436;BME280;48480;50.252;18.848;2023-04-26T01:36:43;98215.61;;;7.12;59.36
62436;BME280;48480;50.252;18.848;2023-04-26T01:39:28;98216.54;;;7.08;59.51
62436;BME280;48480;50.252;18.848;2023-04-26T01:42:12;98220.64;;;7.05;59.61
62436;BME280;48480;50.252;18.848;2023-04-26T01:44:56;98224.09;;;7.01;59.74
62436;BME280;48480;50.252;18.848;2023-04-26T01:47:40;98222.17;;;6.98;59.84
62436;BME280;48480;50.252;18.848;2023-04-26T01:50:24;98218.88;;;6.95;59.83
62436;BME280;48480;50.252;18.848;2023-04-26T01:53:08;98218.77;;;6.92;59.86
62436;BME280;48480;50.252;18.848;2023-04-26T01:55:53;98219.94;;;6.87;60.02
62436;BME280;48480;50.252;18.848;2023-04-26T01:58:38;98218.98;;;6.80;60.22
62436;BME280;48480;50.252;18.848;2023-04-26T02:01:22;98219.45;;;6.76;60.26
62436;BME280;48480;50.252;18.848;2023-04-26T02:04:07;98220.04;;;6.74;60.32
62436;BME280;48480;50.252;18.848;2023-04-26T02:06:51;98219.44;;;6.71;60.46
62436;BME280;48480;50.252;18.848;2023-04-26T02:09:34;98220.31;;;6.68;60.51
62436;BME280;48480;50.252;18.848;2023-04-26T02:12:18;98222.85;;;6.62;60.60
62436;BME280;48480;50.252;18.848;2023-04-26T02:15:02;98223.34;;;6.59;60.69
62436;BME280;48480;50.252;18.848;2023-04-26T02:17:47;98224.78;;;6.56;60.69
62436;BME280;48480;50.252;18.848;2023-04-26T02:20:32;98226.09;;;6.54;60.72
62436;BME280;48480;50.252;18.848;2023-04-26T02:23:16;98229.94;;;6.50;60.92
62436;BME280;48480;50.252;18.848;2023-04-26T02:26:00;98230.40;;;6.48;60.87
62436;BME280;48480;50.252;18.848;2023-04-26T02:28:44;98219.48;;;6.40;61.01
62436;BME280;48480;50.252;18.848;2023-04-26T02:31:28;98225.80;;;6.40;61.00
62436;BME280;48480;50.252;18.848;2023-04-26T02:34:11;98228.85;;;6.31;61.10
62436;BME280;48480;50.252;18.848;2023-04-26T02:36:55;98228.51;;;6.19;61.33
62436;BME280;48480;50.252;18.848;2023-04-26T02:39:39;98223.91;;;6.10;61.73
62436;BME280;48480;50.252;18.848;2023-04-26T02:42:24;98227.14;;;6.04;61.93
62436;BME280;48480;50.252;18.848;2023-04-26T02:45:08;98228.83;;;5.98;62.24
62436;BME280;48480;50.252;18.848;2023-04-26T02:47:52;98223.35;;;5.90;62.44
62436;BME280;48480;50.252;18.848;2023-04-26T02:50:36;98224.55;;;5.80;62.57
62436;BME280;48480;50.252;18.848;2023-04-26T02:53:20;98225.20;;;5.68;62.87
62436;BME280;48480;50.252;18.848;2023-04-26T02:56:04;98229.16;;;5.59;63.11
62436;BME280;48480;50.252;18.848;2023-04-26T02:58:49;98232.66;;;5.57;63.41
62436;BME280;48480;50.252;18.848;2023-04-26T03:01:33;98232.20;;;5.52;63.54
62436;BME280;48480;50.252;18.848;2023-04-26T03:04:17;98234.32;;;5.44;63.63
62436;BME280;48480;50.252;18.848;2023-04-26T03:07:02;98234.70;;;5.35;63.74
62436;BME280;48480;50.252;18.848;2023-04-26T03:09:46;98241.23;;;5.27;64.17
62436;BME280;48480;50.252;18.848;2023-04-26T03:12:30;98244.81;;;5.22;64.36
62436;BME280;48480;50.252;18.848;2023-04-26T03:15:14;98252.69;;;5.18;64.45
62436;BME280;48480;50.252;18.848;2023-04-26T03:17:58;98252.79;;;5.18;64.38
62436;BME280;48480;50.252;18.848;2023-04-26T03:20:42;98254.42;;;5.20;64.51
62436;BME280;48480;50.252;18.848;2023-04-26T03:23:26;98252.60;;;5.16;64.55
62436;BME280;48480;50.252;18.848;2023-04-26T03:26:11;98256.35;;;5.10;64.75
62436;BME280;48480;50.252;18.848;2023-04-26T03:28:55;98258.92;;;5.07;64.73
62436;BME280;48480;50.252;18.848;2023-04-26T03:31:39;98260.44;;;5.09;64.67
62436;BME280;48480;50.252;18.848;2023-04-26T03:34:23;98266.68;;;5.13;64.44
62436;BME280;48480;50.252;18.848;2023-04-26T03:37:07;98272.17;;;5.16;64.23
62436;BME280;48480;50.252;18.848;2023-04-26T03:39:51;98279.80;;;5.19;64.39
62436;BME280;48480;50.252;18.848;2023-04-26T03:42:36;98282.80;;;5.22;64.10
62436;BME280;48480;50.252;18.848;2023-04-26T03:45:20;98285.92;;;5.23;64.06
62436;BME280;48480;50.252;18.848;2023-04-26T03:48:04;98286.86;;;5.25;64.04
62436;BME280;48480;50.252;18.848;2023-04-26T03:50:48;98284.88;;;5.25;64.01
62436;BME280;48480;50.252;18.848;2023-04-26T03:53:32;98283.23;;;5.25;64.06
62436;BME280;48480;50.252;18.848;2023-04-26T03:56:16;98288.34;;;5.25;64.10
62436;BME280;48480;50.252;18.848;2023-04-26T03:59:00;98291.73;;;5.25;64.11
62436;BME280;48480;50.252;18.848;2023-04-26T04:01:44;98281.71;;;5.19;64.07
62436;BME280;48480;50.252;18.848;2023-04-26T04:04:28;98301.89;;;5.27;64.10
62436;BME280;48480;50.252;18.848;2023-04-26T04:07:12;98301.13;;;5.28;64.00
62436;BME280;48480;50.252;18.848;2023-04-26T04:09:56;98301.20;;;5.30;63.96
62436;BME280;48480;50.252;18.848;2023-04-26T04:12:40;98302.58;;;5.31;63.92
62436;BME280;48480;50.252;18.848;2023-04-26T04:15:24;98304.70;;;5.33;63.84
62436;BME280;48480;50.252;18.848;2023-04-26T04:18:08;98306.37;;;5.34;63.69
62436;BME280;48480;50.252;18.848;2023-04-26T04:20:53;98312.21;;;5.35;63.77
62436;BME280;48480;50.252;18.848;2023-04-26T04:23:37;98309.67;;;5.37;63.86
62436;BME280;48480;50.252;18.848;2023-04-26T04:26:21;98312.79;;;5.40;63.73
62436;BME280;48480;50.252;18.848;2023-04-26T04:29:05;98318.09;;;5.43;63.62
62436;BME280;48480;50.252;18.848;2023-04-26T04:31:51;98316.56;;;5.41;63.46
62436;BME280;48480;50.252;18.848;2023-04-26T04:34:35;98322.33;;;5.40;63.33
62436;BME280;48480;50.252;18.848;2023-04-26T04:37:20;98332.27;;;5.43;63.43
62436;BME280;48480;50.252;18.848;2023-04-26T04:40:06;98329.41;;;5.43;63.52
62436;BME280;48480;50.252;18.848;2023-04-26T04:42:53;98331.40;;;5.41;63.51
62436;BME280;48480;50.252;18.848;2023-04-26T04:45:38;98334.50;;;5.39;63.49
62436;BME280;48480;50.252;18.848;2023-04-26T04:48:22;98335.08;;;5.40;63.50
62436;BME280;48480;50.252;18.848;2023-04-26T04:51:05;98333.84;;;5.42;63.49
62436;BME280;48480;50.252;18.848;2023-04-26T04:53:50;98333.27;;;5.44;63.55
62436;BME280;48480;50.252;18.848;2023-04-26T04:56:38;98332.98;;;5.48;63.61
62436;BME280;48480;50.252;18.848;2023-04-26T04:59:23;98336.63;;;5.53;63.75
62436;BME280;48480;50.252;18.848;2023-04-26T05:02:06;98334.29;;;5.53;63.74
62436;BME280;48480;50.252;18.848;2023-04-26T05:04:51;98339.39;;;5.54;63.55
62436;BME280;48480;50.252;18.848;2023-04-26T05:07:35;98336.02;;;5.55;63.75
62436;BME280;48480;50.252;18.848;2023-04-26T05:10:19;98339.19;;;5.58;63.53
62436;BME280;48480;50.252;18.848;2023-04-26T05:13:03;98339.40;;;5.62;63.52
62436;BME280;48480;50.252;18.848;2023-04-26T05:15:49;98343.00;;;5.68;63.32
62436;BME280;48480;50.252;18.848;2023-04-26T05:18:32;98343.61;;;5.73;63.18
62436;BME280;48480;50.252;18.848;2023-04-26T05:21:16;98350.38;;;5.78;62.55
62436;BME280;48480;50.252;18.848;2023-04-26T05:24:01;98351.70;;;5.79;62.44
62436;BME280;48480;50.252;18.848;2023-04-26T05:26:44;98357.14;;;5.86;62.29
62436;BME280;48480;50.252;18.848;2023-04-26T05:29:29;98355.39;;;5.93;61.64
62436;BME280;48480;50.252;18.848;2023-04-26T05:32:13;98356.90;;;6.01;61.42
62436;BME280;48480;50.252;18.848;2023-04-26T05:34:57;98362.44;;;6.13;60.52
62436;BME280;48480;50.252;18.848;2023-04-26T05:37:41;98361.15;;;7.00;58.54
62436;BME280;48480;50.252;18.848;2023-04-26T05:40:25;98360.56;;;8.18;55.72
62436;BME280;48480;50.252;18.848;2023-04-26T05:43:09;98357.27;;;9.03;53.22
62436;BME280;48480;50.252;18.848;2023-04-26T05:45:56;98355.81;;;9.84;52.36
62436;BME280;48480;50.252;18.848;2023-04-26T05:48:41;98360.11;;;10.72;50.30
62436;BME280;48480;50.252;18.848;2023-04-26T05:51:25;98364.67;;;11.52;49.17
62436;BME280;48480;50.252;18.848;2023-04-26T05:54:11;98362.41;;;12.39;47.73
62436;BME280;48480;50.252;18.848;2023-04-26T05:56:54;98356.83;;;13.05;45.03
62436;BME280;48480;50.252;18.848;2023-04-26T05:59:39;98358.32;;;13.60;43.98
62436;BME280;48480;50.252;18.848;2023-04-26T06:02:23;98358.20;;;14.08;42.61
62436;BME280;48480;50.252;18.848;2023-04-26T06:05:08;98362.94;;;14.60;41.08
62436;BME280;48480;50.252;18.848;2023-04-26T06:07:53;98367.52;;;15.08;40.38
62436;BME280;48480;50.252;18.848;2023-04-26T06:10:37;98366.46;;;15.69;39.46
62436;BME280;48480;50.252;18.848;2023-04-26T06:13:21;98370.66;;;16.19;37.99
62436;BME280;48480;50.252;18.848;2023-04-26T06:16:06;98366.23;;;16.57;37.56
62436;BME280;48480;50.252;18.848;2023-04-26T06:18:50;98368.28;;;16.99;36.71
62436;BME280;48480;50.252;18.848;2023-04-26T06:21:34;98375.41;;;17.21;35.72
62436;BME280;48480;50.252;18.848;2023-04-26T06:24:18;98376.80;;;17.44;35.36
62436;BME280;48480;50.252;18.848;2023-04-26T06:27:02;98378.63;;;17.66;34.62
62436;BME280;48480;50.252;18.848;2023-04-26T06:29:46;98380.52;;;17.79;34.35
62436;BME280;48480;50.252;18.848;2023-04-26T06:32:31;98383.56;;;17.94;34.07
62436;BME280;48480;50.252;18.848;2023-04-26T06:35:15;98382.89;;;17.47;33.82
62436;BME280;48480;50.252;18.848;2023-04-26T06:37:59;98381.16;;;16.69;34.54
62436;BME280;48480;50.252;18.848;2023-04-26T06:40:44;98382.71;;;16.16;35.11
62436;BME280;48480;50.252;18.848;2023-04-26T06:43:27;98381.59;;;15.78;35.56
62436;BME280;48480;50.252;18.848;2023-04-26T06:46:12;98382.33;;;15.87;35.82
62436;BME280;48480;50.252;18.848;2023-04-26T06:48:56;98375.73;;;16.18;35.19
62436;BME280;48480;50.252;18.848;2023-04-26T06:51:40;98369.13;;;16.43;35.21
62436;BME280;48480;50.252;18.848;2023-04-26T06:54:29;98363.80;;;16.62;35.23
62436;BME280;48480;50.252;18.848;2023-04-26T06:57:13;98369.78;;;16.60;35.22
62436;BME280;48480;50.252;18.848;2023-04-26T06:59:57;98378.26;;;15.96;35.17
62436;BME280;48480;50.252;18.848;2023-04-26T07:02:41;98384.47;;;14.84;35.60
62436;BME280;48480;50.252;18.848;2023-04-26T07:05:25;98384.08;;;14.00;37.13
62436;BME280;48480;50.252;18.848;2023-04-26T07:08:09;98383.82;;;13.78;38.09
62436;BME280;48480;50.252;18.848;2023-04-26T07:10:54;98384.54;;;13.57;38.51
62436;BME280;48480;50.252;18.848;2023-04-26T07:13:39;98391.09;;;13.50;38.91
62436;BME280;48480;50.252;18.848;2023-04-26T07:16:22;98391.91;;;13.51;38.99
62436;BME280;48480;50.252;18.848;2023-04-26T07:19:07;98394.46;;;13.24;38.90
62436;BME280;48480;50.252;18.848;2023-04-26T07:21:52;98392.89;;;12.76;39.52
62436;BME280;48480;50.252;18.848;2023-04-26T07:24:36;98397.30;;;12.13;40.39
62436;BME280;48480;50.252;18.848;2023-04-26T07:27:21;98399.04;;;11.74;41.23
62436;BME280;48480;50.252;18.848;2023-04-26T07:30:05;98402.44;;;11.63;41.79
62436;BME280;48480;50.252;18.848;2023-04-26T07:32:51;98404.11;;;11.86;42.13
62436;BME280;48480;50.252;18.848;2023-04-26T07:35:36;98406.45;;;11.77;41.97
62436;BME280;48480;50.252;18.848;2023-04-26T07:38:21;98409.02;;;11.38;42.62
62436;BME280;48480;50.252;18.848;2023-04-26T07:41:07;98413.04;;;10.92;43.40
62436;BME280;48480;50.252;18.848;2023-04-26T07:43:52;98416.30;;;10.46;43.82
62436;BME280;48480;50.252;18.848;2023-04-26T07:46:37;98416.10;;;10.13;44.12
62436;BME280;48480;50.252;18.848;2023-04-26T07:49:22;98414.91;;;9.79;44.77
62436;BME280;48480;50.252;18.848;2023-04-26T07:52:07;98422.06;;;9.76;44.93
62436;BME280;48480;50.252;18.848;2023-04-26T07:54:52;98417.30;;;9.87;44.63
62436;BME280;48480;50.252;18.848;2023-04-26T07:57:37;98415.48;;;10.02;44.60
62436;BME280;48480;50.252;18.848;2023-04-26T08:00:21;98422.16;;;9.99;44.59
62436;BME280;48480;50.252;18.848;2023-04-26T08:03:05;98421.50;;;9.81;45.51
62436;BME280;48480;50.252;18.848;2023-04-26T08:05:50;98424.48;;;9.69;46.17
62436;BME280;48480;50.252;18.848;2023-04-26T08:08:37;98426.02;;;9.79;45.98
62436;BME280;48480;50.252;18.848;2023-04-26T08:11:27;98425.48;;;9.95;45.57
62436;BME280;48480;50.252;18.848;2023-04-26T08:14:12;98422.48;;;10.45;44.80
62436;BME280;48480;50.252;18.848;2023-04-26T08:16:56;98433.79;;;10.83;43.91
62436;BME280;48480;50.252;18.848;2023-04-26T08:19:41;98429.61;;;10.93;42.62
62436;BME280;48480;50.252;18.848;2023-04-26T08:22:25;98433.80;;;10.71;42.79
62436;BME280;48480;50.252;18.848;2023-04-26T08:25:10;98434.65;;;10.45;43.31
62436;BME280;48480;50.252;18.848;2023-04-26T08:27:54;98428.52;;;10.23;43.77
62436;BME280;48480;50.252;18.848;2023-04-26T08:30:39;98427.80;;;10.31;43.65
62436;BME280;48480;50.252;18.848;2023-04-26T08:33:24;98426.83;;;10.69;43.16
62436;BME280;48480;50.252;18.848;2023-04-26T08:36:08;98423.19;;;11.17;41.55
62436;BME280;48480;50.252;18.848;2023-04-26T08:38:52;98418.18;;;11.35;41.29
62436;BME280;48480;50.252;18.848;2023-04-26T08:42:15;98424.98;;;11.31;40.62
62436;BME280;48480;50.252;18.848;2023-04-26T08:45:00;98431.52;;;11.05;40.34
62436;BME280;48480;50.252;18.848;2023-04-26T08:48:02;98424.80;;;11.17;40.12
62436;BME280;48480;50.252;18.848;2023-04-26T08:50:50;98428.20;;;11.60;39.78
62436;BME280;48480;50.252;18.848;2023-04-26T08:53:35;98428.70;;;11.90;39.30
62436;BME280;48480;50.252;18.848;2023-04-26T08:56:22;98428.50;;;12.13;38.79
62436;BME280;48480;50.252;18.848;2023-04-26T08:59:07;98428.78;;;11.96;37.74
62436;BME280;48480;50.252;18.848;2023-04-26T09:01:52;98433.23;;;11.35;37.97
62436;BME280;48480;50.252;18.848;2023-04-26T09:04:36;98430.10;;;10.87;38.38
62436;BME280;48480;50.252;18.848;2023-04-26T09:07:32;98432.56;;;10.72;38.75
62436;BME280;48480;50.252;18.848;2023-04-26T09:10:18;98429.07;;;10.48;39.03
62436;BME280;48480;50.252;18.848;2023-04-26T09:13:06;98420.79;;;10.40;39.45
62436;BME280;48480;50.252;18.848;2023-04-26T09:15:50;98428.95;;;10.30;39.68
62436;BME280;48480;50.252;18.848;2023-04-26T09:18:46;98433.92;;;10.15;40.11
62436;BME280;48480;50.252;18.848;2023-04-26T09:21:33;98429.02;;;10.14;40.39
62436;BME280;48480;50.252;18.848;2023-04-26T09:24:24;98434.42;;;10.64;40.28
62436;BME280;48480;50.252;18.848;2023-04-26T09:27:10;98428.81;;;11.27;39.37
62436;BME280;48480;50.252;18.848;2023-04-26T09:30:15;98428.13;;;11.98;37.80
62436;BME280;48480;50.252;18.848;2023-04-26T09:33:03;98433.66;;;12.09;37.29
62436;BME280;48480;50.252;18.848;2023-04-26T09:35:49;98440.41;;;11.82;36.78
62436;BME280;48480;50.252;18.848;2023-04-26T09:38:41;98437.36;;;11.44;37.34
62436;BME280;48480;50.252;18.848;2023-04-26T09:41:41;98441.64;;;11.14;37.59
62436;BME280;48480;50.252;18.848;2023-04-26T09:44:25;98443.73;;;10.81;38.01
62436;BME280;48480;50.252;18.848;2023-04-26T09:47:10;98445.28;;;10.77;37.84
62436;BME280;48480;50.252;18.848;2023-04-26T09:49:55;98445.23;;;10.78;37.96
62436;BME280;48480;50.252;18.848;2023-04-26T09:52:42;98441.94;;;10.63;38.42
62436;BME280;48480;50.252;18.848;2023-04-26T09:55:29;98443.58;;;10.49;38.79
62436;BME280;48480;50.252;18.848;2023-04-26T09:58:14;98443.55;;;10.61;38.03
62436;BME280;48480;50.252;18.848;2023-04-26T10:01:00;98440.45;;;10.90;37.30
62436;BME280;48480;50.252;18.848;2023-04-26T10:03:45;98432.09;;;11.01;36.79
62436;BME280;48480;50.252;18.848;2023-04-26T10:06:30;98437.51;;;10.91;36.81
62436;BME280;48480;50.252;18.848;2023-04-26T10:09:15;98439.39;;;10.69;37.31
62436;BME280;48480;50.252;18.848;2023-04-26T10:12:00;98440.64;;;10.54;37.52
62436;BME280;48480;50.252;18.848;2023-04-26T10:14:46;98445.21;;;10.50;37.63
62436;BME280;48480;50.252;18.848;2023-04-26T10:17:31;98440.70;;;10.44;36.79
62436;BME280;48480;50.252;18.848;2023-04-26T10:20:17;98438.69;;;10.46;37.03
62436;BME280;48480;50.252;18.848;2023-04-26T10:23:05;98438.80;;;10.40;37.60
62436;BME280;48480;50.252;18.848;2023-04-26T10:25:53;98440.09;;;10.35;37.41
62436;BME280;48480;50.252;18.848;2023-04-26T10:35:11;98440.73;;;10.80;36.01
62436;BME280;48480;50.252;18.848;2023-04-26T10:40:46;98429.08;;;11.79;34.52
62436;BME280;48480;50.252;18.848;2023-04-26T10:43:31;98435.53;;;12.22;33.30
62436;BME280;48480;50.252;18.848;2023-04-26T10:46:33;98431.50;;;12.56;32.42
62436;BME280;48480;50.252;18.848;2023-04-26T10:49:19;98438.76;;;12.45;32.34
62436;BME280;48480;50.252;18.848;2023-04-26T10:52:10;98447.00;;;12.07;33.24
62436;BME280;48480;50.252;18.848;2023-04-26T10:54:56;98448.65;;;11.60;32.98
62436;BME280;48480;50.252;18.848;2023-04-26T10:57:53;98449.53;;;11.18;33.18
62436;BME280;48480;50.252;18.848;2023-04-26T11:00:39;98445.10;;;11.03;33.15
62436;BME280;48480;50.252;18.848;2023-04-26T11:03:23;98439.32;;;11.18;33.05
62436;BME280;48480;50.252;18.848;2023-04-26T11:06:11;98441.88;;;11.11;31.93
62436;BME280;48480;50.252;18.848;2023-04-26T11:08:58;98438.08;;;10.93;31.37
62436;BME280;48480;50.252;18.848;2023-04-26T11:11:52;98437.14;;;10.77;32.04
62436;BME280;48480;50.252;18.848;2023-04-26T11:14:36;98432.22;;;10.71;33.21
62436;BME280;48480;50.252;18.848;2023-04-26T11:17:21;98445.84;;;10.85;33.80
62436;BME280;48480;50.252;18.848;2023-04-26T11:20:09;98446.20;;;10.95;32.90
62436;BME280;48480;50.252;18.848;2023-04-26T11:22:53;98444.52;;;11.18;31.94
62436;BME280;48480;50.252;18.848;2023-04-26T11:25:38;98439.56;;;11.51;30.50
62436;BME280;48480;50.252;18.848;2023-04-26T11:28:22;98429.75;;;11.92;29.67
62436;BME280;48480;50.252;18.848;2023-04-26T11:31:08;98439.15;;;12.20;29.86
62436;BME280;48480;50.252;18.848;2023-04-26T11:33:52;98434.45;;;12.36;30.13
62436;BME280;48480;50.252;18.848;2023-04-26T11:36:37;98431.77;;;12.45;30.82
62436;BME280;48480;50.252;18.848;2023-04-26T11:39:21;98430.77;;;12.51;30.90
62436;BME280;48480;50.252;18.848;2023-04-26T11:42:08;98436.96;;;12.44;29.78
62436;BME280;48480;50.252;18.848;2023-04-26T11:44:55;98447.36;;;12.47;28.60
62436;BME280;48480;50.252;18.848;2023-04-26T11:47:40;98435.13;;;12.53;28.20
62436;BME280;48480;50.252;18.848;2023-04-26T11:50:24;98433.76;;;12.62;28.87
62436;BME280;48480;50.252;18.848;2023-04-26T11:53:09;98436.98;;;12.70;29.22
62436;BME280;48480;50.252;18.848;2023-04-26T11:55:54;98438.30;;;12.90;31.44
62436;BME280;48480;50.252;18.848;2023-04-26T11:58:38;98436.41;;;13.13;32.99
62436;BME280;48480;50.252;18.848;2023-04-26T12:01:26;98444.41;;;13.11;32.86
62436;BME280;48480;50.252;18.848;2023-04-26T12:04:11;98446.30;;;12.74;32.41
62436;BME280;48480;50.252;18.848;2023-04-26T12:06:56;98446.33;;;12.41;32.70
62436;BME280;48480;50.252;18.848;2023-04-26T12:09:41;98449.63;;;12.01;32.51
62436;BME280;48480;50.252;18.848;2023-04-26T12:12:26;98448.67;;;11.54;33.34
62436;BME280;48480;50.252;18.848;2023-04-26T12:15:11;98448.66;;;11.26;33.85
62436;BME280;48480;50.252;18.848;2023-04-26T12:18:07;98454.92;;;10.98;34.51
62436;BME280;48480;50.252;18.848;2023-04-26T12:20:57;98454.25;;;10.79;35.06
62436;BME280;48480;50.252;18.848;2023-04-26T12:23:42;98463.34;;;10.73;35.52
62436;BME280;48480;50.252;18.848;2023-04-26T12:26:41;98476.97;;;10.46;36.28
62436;BME280;48480;50.252;18.848;2023-04-26T12:29:26;98475.38;;;10.00;37.10
62436;BME280;48480;50.252;18.848;2023-04-26T12:32:11;98474.83;;;9.82;37.69
62436;BME280;48480;50.252;18.848;2023-04-26T12:34:56;98472.45;;;9.96;36.88
62436;BME280;48480;50.252;18.848;2023-04-26T12:37:40;98466.93;;;10.24;35.85
62436;BME280;48480;50.252;18.848;2023-04-26T12:40:25;98470.87;;;10.55;35.77
62436;BME280;48480;50.252;18.848;2023-04-26T12:43:09;98465.27;;;10.79;35.26
62436;BME280;48480;50.252;18.848;2023-04-26T12:45:53;98461.19;;;10.89;35.42
62436;BME280;48480;50.252;18.848;2023-04-26T12:48:38;98463.27;;;11.01;34.92
62436;BME280;48480;50.252;18.848;2023-04-26T12:51:23;98466.01;;;11.19;35.03
62436;BME280;48480;50.252;18.848;2023-04-26T12:54:07;98460.94;;;11.41;35.19
62436;BME280;48480;50.252;18.848;2023-04-26T12:56:51;98461.13;;;11.68;35.35
62436;BME280;48480;50.252;18.848;2023-04-26T12:59:35;98458.90;;;11.83;34.07
62436;BME280;48480;50.252;18.848;2023-04-26T13:02:19;98463.81;;;11.94;33.75
62436;BME280;48480;50.252;18.848;2023-04-26T13:05:05;98462.66;;;12.08;31.75
62436;BME280;48480;50.252;18.848;2023-04-26T13:07:50;98463.98;;;12.22;31.16
62436;BME280;48480;50.252;18.848;2023-04-26T13:10:35;98465.70;;;12.35;31.23
62436;BME280;48480;50.252;18.848;2023-04-26T13:13:19;98464.52;;;12.37;31.44
62436;BME280;48480;50.252;18.848;2023-04-26T13:16:04;98465.89;;;12.35;31.90
62436;BME280;48480;50.252;18.848;2023-04-26T13:18:49;98472.39;;;12.32;32.57
62436;BME280;48480;50.252;18.848;2023-04-26T13:21:32;98473.40;;;12.22;32.18
62436;BME280;48480;50.252;18.848;2023-04-26T13:24:17;98485.18;;;12.15;31.38
62436;BME280;48480;50.252;18.848;2023-04-26T13:27:01;98483.30;;;12.05;31.04
62436;BME280;48480;50.252;18.848;2023-04-26T13:29:46;98477.38;;;12.01;30.89
62436;BME280;48480;50.252;18.848;2023-04-26T13:32:30;98473.33;;;12.11;31.41
62436;BME280;48480;50.252;18.848;2023-04-26T13:35:14;98477.22;;;12.25;31.64
62436;BME280;48480;50.252;18.848;2023-04-26T13:37:58;98477.21;;;12.35;31.64
62436;BME280;48480;50.252;18.848;2023-04-26T13:40:43;98478.62;;;12.34;31.44
62436;BME280;48480;50.252;18.848;2023-04-26T13:43:27;98486.64;;;12.14;32.33
62436;BME280;48480;50.252;18.848;2023-04-26T13:46:11;98495.14;;;11.96;33.22
62436;BME280;48480;50.252;18.848;2023-04-26T13:48:56;98500.13;;;11.87;34.08
62436;BME280;48480;50.252;18.848;2023-04-26T13:51:40;98501.55;;;11.76;34.77
62436;BME280;48480;50.252;18.848;2023-04-26T13:54:24;98499.04;;;11.73;35.42
62436;BME280;48480;50.252;18.848;2023-04-26T13:57:09;98508.89;;;11.74;35.96
62436;BME280;48480;50.252;18.848;2023-04-26T13:59:54;98503.34;;;11.81;33.93
62436;BME280;48480;50.252;18.848;2023-04-26T14:02:38;98502.52;;;12.00;31.22
62436;BME280;48480;50.252;18.848;2023-04-26T14:05:22;98502.93;;;12.13;29.88
62436;BME280;48480;50.252;18.848;2023-04-26T14:08:06;98494.39;;;12.12;30.00
62436;BME280;48480;50.252;18.848;2023-04-26T14:10:51;98497.02;;;12.26;30.32
62436;BME280;48480;50.252;18.848;2023-04-26T14:13:35;98489.58;;;12.37;30.46
62436;BME280;48480;50.252;18.848;2023-04-26T14:16:21;98488.59;;;12.37;30.84
62436;BME280;48480;50.252;18.848;2023-04-26T14:19:05;98490.39;;;12.38;31.17
62436;BME280;48480;50.252;18.848;2023-04-26T14:21:49;98498.57;;;12.37;31.39
62436;BME280;48480;50.252;18.848;2023-04-26T14:24:33;98497.54;;;12.30;31.41
62436;BME280;48480;50.252;18.848;2023-04-26T14:27:17;98500.28;;;12.13;31.81
62436;BME280;48480;50.252;18.848;2023-04-26T14:30:02;98506.77;;;11.95;32.33
62436;BME280;48480;50.252;18.848;2023-04-26T14:32:46;98509.99;;;11.82;32.74
62436;BME280;48480;50.252;18.848;2023-04-26T14:35:30;98514.59;;;11.71;33.26
62436;BME280;48480;50.252;18.848;2023-04-26T14:38:14;98514.45;;;11.63;33.37